createdAt,value
2023-04-19T00:00:02.459Z,6.7
2023-04-19T00:20:03.040Z,6.7
2023-04-19T00:40:02.489Z,6.6
2023-04-19T01:00:02.933Z,6.5
2023-04-19T01:20:02.748Z,6.2
2023-04-19T01:40:02.291Z,5.9
2023-04-19T02:00:02.712Z,5.7
2023-04-19T02:20:02.299Z,5.4
2023-04-19T02:40:02.820Z,5.1
2023-04-19T03:00:02.329Z,4.9
2023-04-19T03:20:02.943Z,4.7
2023-04-19T03:40:02.622Z,4.5
2023-04-19T04:00:03.138Z,4.3
2023-04-19T04:20:02.797Z,4.3
2023-04-19T04:40:02.352Z,4.1
2023-04-19T05:00:02.919Z,4.4
2023-04-19T05:20:03.052Z,4.8
2023-04-19T05:40:02.435Z,5.3
2023-04-19T06:00:02.834Z,5.9
2023-04-19T06:20:02.916Z,6.6
2023-04-19T06:40:02.521Z,7.5
2023-04-19T07:00:03.222Z,8.4
2023-04-19T07:20:02.925Z,9.7
2023-04-19T07:40:02.528Z,10.6
2023-04-19T08:00:03.320Z,11.2
2023-04-19T08:20:02.319Z,12.5
2023-04-19T08:40:02.899Z,12.8
2023-04-19T09:00:02.571Z,12.1
2023-04-19T09:20:02.423Z,12.1
2023-04-19T09:40:02.913Z,12.7
2023-04-19T10:00:02.808Z,13.7
2023-04-19T10:20:02.672Z,14
2023-04-19T10:40:02.110Z,12.8
2023-04-19T11:00:03.311Z,12.8
2023-04-19T11:20:03.287Z,13.4
2023-04-19T11:40:04.752Z,12.2
2023-04-19T12:00:02.884Z,12.4
2023-04-19T12:20:02.170Z,12.4
2023-04-19T12:40:02.716Z,12.4
2023-04-19T13:00:03.271Z,12.2
2023-04-19T13:20:03.053Z,12.1
2023-04-19T13:40:15.245Z,11.8
2023-04-19T14:00:03.824Z,11
2023-04-19T14:20:03.898Z,10.7
2023-04-19T14:40:02.812Z,10.4
2023-04-19T15:00:02.860Z,10
2023-04-19T15:20:02.634Z,9.1
2023-04-19T15:40:03.031Z,7.9
2023-04-19T16:00:02.948Z,7.4
2023-04-19T16:20:02.988Z,7.5
2023-04-19T16:40:02.496Z,7.4
2023-04-19T17:00:02.790Z,7.2
2023-04-19T17:20:02.317Z,7.1
2023-04-19T17:40:02.815Z,7
2023-04-19T18:00:02.403Z,7
2023-04-19T18:20:02.263Z,7
2023-04-19T18:40:02.755Z,6.9
2023-04-19T19:00:03.625Z,6.9
2023-04-19T19:20:02.520Z,7
2023-04-19T19:40:05.195Z,7
2023-04-19T20:00:22.798Z,7
2023-04-19T20:20:02.510Z,6.9
2023-04-19T20:40:03.033Z,6.8
2023-04-19T21:00:02.404Z,6.9
2023-04-19T21:20:03.103Z,6.8
2023-04-19T21:40:02.572Z,6.7
2023-04-19T22:00:03.073Z,6.7
2023-04-19T22:20:02.603Z,6.7
2023-04-19T22:40:03.118Z,6.6
2023-04-19T23:00:02.554Z,6.6
2023-04-19T23:20:02.066Z,6.6
2023-04-19T23:40:02.356Z,6.6
